• Join FlightAware (Why Join?)
  • Login
  • US Flag 
11:30AM EST


 

Airport Tracker/Info


-or-


 

Live Flight TrackerFlight Track Log ✈ N403JA ✈ 03-May-2013 ✈ KDAY - KDPA

Flight Track Log - Related Links

Times and Time Zones

All times are in EDT time to prevent confusion due to time zone crossing. See the N403JA flight status page for this flight to view local times or setup timezone preferences in your user account.

Time Position Orientation Groundspeed Altitude Reporting Facility
EDT Latitude Longitude Course Direction KTS MPH feet Rate Location/Type
03:12PM 39.8928 -84.2108 305° West 93 107 1,300  Level Indianapolis Center
03:13PM 39.8597 -84.2311 205° Southwest 145 167 2,300 720 Climbing Indianapolis Center
03:14PM 39.8594 -84.2575 269° West 139 160 2,600 660 Climbing Indianapolis Center
03:14PM 39.8681 -84.2864 291° West 166 191 3,000 660 Climbing Indianapolis Center
03:15PM 39.8811 -84.3078 309° West 152 175 3,300 660 Climbing Indianapolis Center
03:15PM 39.8914 -84.3331 298° West 158 182 3,700 840 Climbing Indianapolis Center
03:16PM 39.9028 -84.3581 301° West 157 181 4,200 780 Climbing Indianapolis Center
03:16PM 39.9103 -84.3847 290° West 154 177 4,500 540 Climbing Indianapolis Center
03:17PM 39.9203 -84.4117 296° West 159 183 4,800 720 Climbing Indianapolis Center
03:17PM 39.9275 -84.4333 293° West 159 183 5,200 840 Climbing Indianapolis Center
03:18PM 40.0763 -84.5492 305° West  Level Estimated
03:18PM 39.9403 -84.4622 300° West 158 182 5,700  Level Indianapolis Center
03:18PM 39.9544 -84.4886 305° West 157 181 6,000 240 Climbing Indianapolis Center
03:19PM 39.9639 -84.5161 294° West 164 189 6,000  Level Indianapolis Center
03:19PM 39.9744 -84.5514 291° West 193 222 6,000 -120 Level Indianapolis Center
03:20PM 39.9850 -84.5797 296° West 185 213 5,900  Descending Indianapolis Center
03:20PM 39.9986 -84.6147 297° West 198 228 6,000  Climbing Indianapolis Center
03:21PM 40.0142 -84.6558 296° West 196 226 5,900  Descending Indianapolis Center
03:21PM 40.0228 -84.6781 297° West 199 229 6,000  Climbing Indianapolis Center
03:22PM 40.0394 -84.7225 296° West 200 230 5,900  Descending Indianapolis Center
03:22PM 40.0467 -84.7442 294° West 202 232 6,000  Climbing Indianapolis Center
03:23PM 40.0617 -84.7881 294° West 199 229 5,900  Descending Indianapolis Center
03:24PM 40.0739 -84.8189 297° West 198 228 6,000  Climbing Indianapolis Center
03:24PM 40.0881 -84.8519 299° West 197 227 5,900  Descending Indianapolis Center
03:25PM 40.1000 -84.8828 297° West 198 228 6,000 60 Climbing Indianapolis Center
03:25PM 40.1094 -84.9158 290° West 200 230 6,000  Level Indianapolis Center
03:26PM 40.1236 -84.9489 299° West 200 230 6,000  Level Indianapolis Center
03:26PM 40.1350 -84.9808 295° West 201 231 6,000  Level Indianapolis Center
03:27PM 40.1475 -85.0153 295° West 202 232 6,000  Level Indianapolis Center
03:27PM 40.1636 -85.0594 296° West 200 230 6,000  Level Indianapolis Center
03:28PM 40.1714 -85.0789 298° West 199 229 6,000  Level Indianapolis Center
03:28PM 40.1872 -85.1222 296° West 196 226 6,000  Level Indianapolis Center
03:29PM 40.1969 -85.1483 296° West 193 222 6,000  Level Indianapolis Center
03:29PM 40.2094 -85.1856 294° West 193 222 6,000  Level Indianapolis Center
03:30PM 40.2331 -85.2497 296° West 196 226 6,000  Level Indianapolis Center
03:31PM 40.2561 -85.3119 296° West 193 222 6,000  Level Indianapolis Center
03:32PM 40.2842 -85.3881 296° West 193 222 6,000  Level Indianapolis Center
03:33PM 40.3072 -85.4517 295° West 194 223 6,000  Level Indianapolis Center
03:34PM 40.3303 -85.5142 296° West 195 224 6,100  Climbing Chicago Center
03:35PM 40.3539 -85.5781 296° West 195 224 6,100  Level Chicago Center
03:37PM 40.3775 -85.6411 296° West 195 224 6,100 -60 Level Chicago Center
03:37PM 40.3961 -85.6958 294° West 195 224 6,000 -120 Descending Chicago Center
03:38PM 40.4006 -85.7050 302° West 195 224 6,000  Level Chicago Center
03:38PM 40.4214 -85.7628 295° West 195 224 6,000 60 Level Chicago Center
03:39PM 40.4311 -85.7794 307° West 195 224 6,100  Climbing Chicago Center
03:39PM 40.4508 -85.8269 299° West 196 226 6,000  Descending Chicago Center
03:40PM 40.4586 -85.8411 306° West 197 227 6,100 -120 Climbing Chicago Center
03:40PM 40.4761 -85.8883 296° West 197 227 5,900  Descending Chicago Center
03:41PM 40.4856 -85.9036 309° West 197 227 6,100 60 Climbing Chicago Center
03:41PM 40.5053 -85.9528 298° West 199 229 6,000  Descending Chicago Center
03:42PM 40.5125 -85.9675 303° West 200 230 6,100  Climbing Chicago Center
03:42PM 40.5306 -86.0142 297° West 198 228 6,000  Descending Chicago Center
03:43PM 40.5386 -86.0300 304° West 198 228 6,100  Climbing Chicago Center
03:43PM 40.5600 -86.0786 300° West 198 228 6,000 -240 Descending Chicago Center
03:44PM 40.5664 -86.0939 299° West 200 230 5,900  Descending Chicago Center
03:44PM 40.5850 -86.1403 298° West 198 228 6,000 60 Climbing Chicago Center
03:45PM 40.5975 -86.1694 299° West 198 228 6,000  Level Chicago Center
03:45PM 40.6122 -86.2075 297° West 196 226 6,000  Level Chicago Center
03:46PM 40.6242 -86.2317 303° West 197 227 6,000  Level Chicago Center
03:46PM 40.6394 -86.2692 298° West 198 228 6,000 -120 Level Chicago Center
03:47PM 40.6517 -86.2944 303° West 198 228 5,900  Descending Chicago Center
03:47PM 40.6683 -86.3367 298° West 200 230 6,000 60 Climbing Chicago Center
03:48PM 40.6781 -86.3583 301° West 200 230 6,000 -120 Level Chicago Center
03:48PM 40.6933 -86.3983 297° West 201 231 5,900  Descending Chicago Center
03:49PM 40.7058 -86.4242 303° West 200 230 6,000  Climbing Chicago Center
03:49PM 40.7225 -86.4658 298° West 200 230 5,900  Descending Chicago Center
03:50PM 40.7333 -86.4878 303° West 200 230 6,000 60 Climbing Chicago Center
03:50PM 40.7475 -86.5250 297° West 198 228 6,000  Level Chicago Center
03:51PM 40.7647 -86.5636 301° West 199 229 6,000  Level Chicago Center
03:51PM 40.7764 -86.5928 298° West 200 230 6,000  Level Chicago Center
03:52PM 40.7919 -86.6281 300° West 200 230 6,000  Level Chicago Center
03:52PM 40.8014 -86.6547 295° West 202 232 6,000  Level Chicago Center
03:53PM 40.8194 -86.6928 302° West 202 232 6,000  Level Chicago Center
03:53PM 40.8300 -86.7222 295° West 202 232 6,000  Level Chicago Center
03:54PM 40.8458 -86.7578 300° West 202 232 6,000  Level Chicago Center
03:55PM 40.8725 -86.8228 298° West 202 232 6,000  Level Chicago Center
03:56PM 40.9058 -86.8992 300° West 202 232 6,000  Level Chicago Center
03:57PM 40.9322 -86.9650 298° West 203 234 6,000  Level Chicago Center
03:58PM 40.9592 -87.0303 299° West 202 232 6,000  Level Chicago Center
03:59PM 40.9858 -87.0964 298° West 205 236 6,100  Climbing Chicago Center
04:00PM 41.0125 -87.1619 298° West 204 235 6,100  Level Chicago Center
04:01PM 41.0411 -87.2264 300° West 204 235 6,100  Level Chicago Center
04:02PM 41.0783 -87.3022 303° West 205 236 6,100  Level Chicago Center
04:03PM 41.1072 -87.3658 301° West 204 235 6,100  Level Chicago Center
04:04PM 41.1372 -87.4294 302° West 204 235 6,100  Level Chicago Center
04:05PM 41.1664 -87.4931 301° West 203 234 6,100  Level Chicago Center
04:06PM 41.1964 -87.5558 302° West 202 232 6,100  Level Chicago Center
04:07PM 41.2325 -87.6325 302° West 204 235 6,100  Level Chicago Center
04:09PM 41.2617 -87.6969 301° West 204 235 6,100 -180 Level Chicago Center
04:10PM 41.2917 -87.7617 302° West 206 237 5,800 -420 Descending Chicago Center
04:11PM 41.3233 -87.8303 302° West 212 244 5,300 -480 Descending Chicago Center
04:12PM 41.3553 -87.8992 302° West 217 250 4,900 -480 Descending Chicago Center
04:13PM 41.3925 -87.9814 301° West 218 251 4,400 -420 Descending Chicago Center
04:14PM 41.4222 -88.0475 301° West 215 247 4,100 -240 Descending Chicago Center
04:15PM 41.4475 -88.1025 302° West 206 237 4,000 -60 Descending Chicago Center
04:16PM 41.4881 -88.1656 311° West 202 232 4,000  Level Chicago Center
04:17PM 41.5339 -88.1958 334° Northwest 191 220 4,000  Level Chicago Center
04:18PM 41.5797 -88.2272 333° Northwest 187 215 4,000 -240 Level Chicago Center
04:19PM 41.6272 -88.2583 334° Northwest 188 216 3,500 -480 Descending Chicago Center
04:20PM 41.6747 -88.2903 333° Northwest 190 219 3,000 -300 Descending Chicago Center
04:21PM 41.7186 -88.3133 339° North 186 214 3,000  Level Chicago Center
04:22PM 41.7664 -88.2961 15° North 157 181 3,000 -240 Level Chicago Center
04:23PM 41.8044 -88.2839 13° North 149 171 2,600 -540 Descending Chicago Center
04:24PM 41.8378 -88.2722 15° North 137 158 2,000 -660 Descending Chicago Center
04:25PM 41.8697 -88.2619 13° North 127 146 1,300 -480 Descending Chicago Center
04:26PM 41.8981 -88.2506 17° North 116 133 1,100 -240 Descending Chicago Center
04:28PM 41.9000 -88.2333 20° North  Level FlightAware Approximate